createdAt,value
2022-12-24T00:00:25.199Z,21.35
2022-12-24T00:00:47.985Z,22.35
2022-12-24T00:01:10.863Z,21.67
2022-12-24T00:01:33.746Z,22.17
2022-12-24T00:01:56.456Z,25.27
2022-12-24T00:02:19.450Z,23.55
2022-12-24T00:02:42.609Z,22.60
2022-12-24T00:03:07.130Z,23.30
2022-12-24T00:03:30.342Z,21.73
2022-12-24T00:03:53.726Z,21.60
2022-12-24T00:04:16.528Z,22.27
2022-12-24T00:04:39.372Z,21.75
2022-12-24T00:05:02.376Z,25.80
2022-12-24T00:05:25.125Z,20.77
2022-12-24T00:05:47.767Z,22.52
2022-12-24T00:06:17.730Z,21.33
2022-12-24T00:06:40.561Z,21.17
2022-12-24T00:07:03.378Z,21.35
2022-12-24T00:07:26.181Z,23.77
2022-12-24T00:07:48.920Z,21.17
2022-12-24T00:08:11.688Z,22.73
2022-12-24T00:08:34.419Z,22.15
2022-12-24T00:08:57.149Z,21.33
2022-12-24T00:09:19.889Z,21.02
2022-12-24T00:09:42.704Z,21.33
2022-12-24T00:10:06.889Z,20.60
2022-12-24T00:10:29.785Z,21.42
2022-12-24T00:10:53.670Z,22.60
2022-12-24T00:11:16.476Z,24.70
2022-12-24T00:11:39.247Z,22.42
2022-12-24T00:12:02.070Z,21.58
2022-12-24T00:12:24.825Z,23.58
2022-12-24T00:12:47.515Z,23.27
2022-12-24T00:13:10.279Z,22.92
2022-12-24T00:13:32.970Z,22.25
2022-12-24T00:13:55.713Z,20.35
2022-12-24T00:14:18.451Z,21.92
2022-12-24T00:14:41.236Z,21.30
2022-12-24T00:15:04.339Z,20.73
2022-12-24T00:15:27.146Z,23.23
2022-12-24T00:15:52.981Z,23.98
2022-12-24T00:16:16.060Z,24.65
2022-12-24T00:16:39.042Z,22.92
2022-12-24T00:17:04.524Z,23.38
2022-12-24T00:17:27.321Z,22.92
2022-12-24T00:17:50.062Z,25.88
2022-12-24T00:18:14.337Z,23.58
2022-12-24T00:18:43.312Z,23.40
2022-12-24T00:19:08.385Z,22.85
2022-12-24T00:19:31.260Z,23.77
2022-12-24T00:19:54.085Z,23.67
2022-12-24T00:20:17.103Z,22.77
2022-12-24T00:20:39.888Z,23.52
2022-12-24T00:21:04.190Z,24.60
2022-12-24T00:21:27.017Z,23.20
2022-12-24T00:21:49.759Z,23.02
2022-12-24T00:22:12.562Z,24.50
2022-12-24T00:22:35.398Z,22.75
2022-12-24T00:22:58.177Z,23.25
2022-12-24T00:23:21.083Z,23.80
2022-12-24T00:23:44.160Z,25.33
2022-12-24T00:24:07.366Z,24.52
2022-12-24T00:24:30.088Z,24.45
2022-12-24T00:24:52.955Z,23.52
2022-12-24T00:25:16.068Z,24.40
2022-12-24T00:25:38.923Z,25.08
2022-12-24T00:26:01.747Z,22.80
2022-12-24T00:26:24.533Z,22.77
2022-12-24T00:26:47.301Z,22.17
2022-12-24T00:27:12.401Z,24.40
2022-12-24T00:27:35.209Z,20.92
2022-12-24T00:27:58.304Z,22.63
2022-12-24T00:28:21.086Z,22.25
2022-12-24T00:28:43.855Z,23.98
2022-12-24T00:29:06.731Z,22.15
2022-12-24T00:29:29.517Z,23.42
2022-12-24T00:29:52.210Z,21.90
2022-12-24T00:30:15.153Z,20.50
2022-12-24T00:30:39.287Z,21.85
2022-12-24T00:31:08.387Z,21.90
2022-12-24T00:31:31.228Z,24.40
2022-12-24T00:31:54.060Z,22.85
2022-12-24T00:32:16.848Z,21.42
2022-12-24T00:32:39.686Z,22.10
2022-12-24T00:33:02.512Z,21.52
2022-12-24T00:33:26.861Z,21.55
2022-12-24T00:33:49.776Z,23.80
2022-12-24T00:34:12.630Z,23.52
2022-12-24T00:34:35.508Z,22.23
2022-12-24T00:34:58.228Z,20.98
2022-12-24T00:35:21.117Z,22.90
2022-12-24T00:35:43.871Z,24.50
2022-12-24T00:36:08.021Z,22.17
2022-12-24T00:36:30.768Z,21.15
2022-12-24T00:36:53.587Z,21.52
2022-12-24T00:37:16.329Z,21.50
2022-12-24T00:37:39.121Z,22.00
2022-12-24T00:38:03.946Z,20.92
2022-12-24T00:38:26.705Z,21.48
2022-12-24T00:38:49.463Z,21.95
2022-12-24T00:39:12.222Z,20.65
2022-12-24T00:39:35.086Z,22.15
2022-12-24T00:39:57.875Z,21.80
2022-12-24T00:40:20.646Z,22.65
2022-12-24T00:40:43.445Z,21.77
2022-12-24T00:41:25.072Z,21.65
2022-12-24T00:41:49.406Z,21.38
2022-12-24T00:42:12.267Z,20.98
2022-12-24T00:42:35.025Z,22.25
2022-12-24T00:42:57.765Z,23.90
2022-12-24T00:43:20.570Z,24.20
2022-12-24T00:43:43.290Z,24.60
2022-12-24T00:44:07.285Z,24.50
2022-12-24T00:44:30.091Z,22.60
2022-12-24T00:44:52.830Z,21.98
2022-12-24T00:45:15.723Z,22.52
2022-12-24T00:45:38.435Z,23.02
2022-12-24T00:46:01.347Z,22.80
2022-12-24T00:46:24.203Z,22.35
2022-12-24T00:46:47.108Z,22.30
2022-12-24T00:47:12.339Z,21.55
2022-12-24T00:47:35.151Z,21.05
2022-12-24T00:47:57.929Z,22.00
2022-12-24T00:48:20.697Z,21.65
2022-12-24T00:48:44.836Z,22.60
2022-12-24T00:49:07.547Z,22.55
2022-12-24T00:49:30.315Z,20.90
2022-12-24T00:49:53.071Z,22.98
2022-12-24T00:50:15.863Z,22.73
2022-12-24T00:50:38.610Z,22.25
2022-12-24T00:51:01.678Z,21.77
2022-12-24T00:51:24.800Z,22.60
2022-12-24T00:51:47.771Z,22.58
2022-12-24T00:52:10.520Z,21.67
2022-12-24T00:52:33.252Z,21.48
2022-12-24T00:52:58.410Z,25.20
2022-12-24T00:53:21.227Z,22.35
2022-12-24T00:53:44.131Z,22.30
2022-12-24T00:54:09.629Z,22.73
2022-12-24T00:54:32.337Z,25.00
2022-12-24T00:54:54.995Z,23.58
2022-12-24T00:55:17.870Z,21.92
2022-12-24T00:55:40.679Z,21.73
2022-12-24T00:56:03.447Z,22.33
2022-12-24T00:56:26.263Z,22.92
2022-12-24T00:56:49.047Z,21.80
2022-12-24T00:57:11.855Z,24.73
2022-12-24T00:57:34.595Z,26.38
2022-12-24T00:57:57.346Z,25.27
2022-12-24T00:58:20.187Z,25.48
2022-12-24T00:58:42.979Z,25.38
2022-12-24T00:59:05.750Z,25.25
2022-12-24T00:59:28.645Z,23.05
2022-12-24T00:59:51.411Z,24.45
2022-12-24T01:00:17.532Z,22.75
2022-12-24T01:00:40.350Z,22.75
2022-12-24T01:01:03.363Z,23.98
2022-12-24T01:01:26.331Z,23.40
2022-12-24T01:01:49.583Z,22.08
2022-12-24T01:02:12.494Z,23.08
2022-12-24T01:02:35.632Z,23.75
2022-12-24T01:02:58.825Z,25.17
2022-12-24T01:03:21.841Z,23.70
2022-12-24T01:03:46.225Z,22.58
2022-12-24T01:04:27.607Z,23.45
2022-12-24T01:05:09.161Z,22.45
2022-12-24T01:05:32.070Z,23.58
2022-12-24T01:05:55.035Z,22.52
2022-12-24T01:06:18.641Z,22.35
2022-12-24T01:06:41.441Z,22.38
2022-12-24T01:07:04.474Z,22.13
2022-12-24T01:07:27.491Z,21.83
2022-12-24T01:07:50.263Z,25.08
2022-12-24T01:08:13.021Z,25.75
2022-12-24T01:08:35.961Z,23.08
2022-12-24T01:08:58.742Z,23.40
2022-12-24T01:09:21.551Z,24.25
2022-12-24T01:09:44.370Z,22.80
2022-12-24T01:10:08.381Z,24.00
2022-12-24T01:10:31.184Z,24.45
2022-12-24T01:10:53.971Z,21.52
2022-12-24T01:11:16.930Z,23.20
2022-12-24T01:11:39.756Z,24.13
2022-12-24T01:12:02.578Z,23.45
2022-12-24T01:12:25.780Z,22.75
2022-12-24T01:12:48.640Z,25.15
2022-12-24T01:13:11.361Z,27.05
2022-12-24T01:13:34.084Z,24.55
2022-12-24T01:13:56.828Z,22.58
2022-12-24T01:14:22.009Z,22.52
2022-12-24T01:14:44.792Z,24.13
2022-12-24T01:15:08.622Z,22.15
2022-12-24T01:15:31.447Z,23.30
2022-12-24T01:15:54.424Z,24.60
2022-12-24T01:16:18.753Z,23.13
2022-12-24T01:16:41.846Z,23.50
2022-12-24T01:17:05.716Z,24.92
2022-12-24T01:17:28.530Z,23.85
2022-12-24T01:17:51.262Z,22.83
2022-12-24T01:18:14.022Z,23.13
2022-12-24T01:18:36.809Z,23.08
2022-12-24T01:19:01.116Z,26.13
2022-12-24T01:19:24.008Z,25.30
2022-12-24T01:19:46.751Z,26.63
2022-12-24T01:20:14.246Z,23.55
2022-12-24T01:20:37.005Z,24.40
2022-12-24T01:21:01.455Z,25.10
2022-12-24T01:21:24.160Z,24.08
2022-12-24T01:21:47.050Z,24.55
2022-12-24T01:22:09.775Z,26.75
2022-12-24T01:22:32.555Z,24.73
2022-12-24T01:22:55.875Z,24.65
2022-12-24T01:23:18.597Z,24.35
2022-12-24T01:23:41.383Z,24.65
2022-12-24T01:24:04.525Z,24.63
2022-12-24T01:24:27.236Z,24.33
2022-12-24T01:24:50.069Z,24.15
2022-12-24T01:25:12.838Z,26.17
2022-12-24T01:25:37.303Z,25.00
2022-12-24T01:26:00.841Z,24.15
2022-12-24T01:26:23.587Z,26.10
2022-12-24T01:26:46.359Z,28.05
2022-12-24T01:27:09.292Z,24.23
2022-12-24T01:27:33.352Z,23.90
2022-12-24T01:27:56.071Z,24.38
2022-12-24T01:28:21.895Z,23.67
2022-12-24T01:28:44.646Z,23.88
2022-12-24T01:29:07.456Z,22.70
2022-12-24T01:29:30.398Z,20.88
2022-12-24T01:29:53.192Z,24.27
2022-12-24T01:30:16.181Z,25.67
2022-12-24T01:30:38.913Z,25.30
2022-12-24T01:31:01.739Z,25.60
2022-12-24T01:31:24.795Z,28.45
2022-12-24T01:31:47.972Z,30.95
2022-12-24T01:32:10.705Z,29.20
2022-12-24T01:32:33.449Z,29.42
2022-12-24T01:32:58.447Z,26.50
2022-12-24T01:33:21.190Z,26.33
2022-12-24T01:33:44.050Z,25.80
2022-12-24T01:34:08.239Z,26.17
2022-12-24T01:34:31.174Z,28.80
2022-12-24T01:34:53.977Z,27.02
2022-12-24T01:35:17.044Z,26.63
2022-12-24T01:35:40.686Z,27.88
2022-12-24T01:36:03.681Z,30.67
2022-12-24T01:36:26.479Z,30.88
2022-12-24T01:36:49.185Z,29.75
2022-12-24T01:37:13.052Z,28.90
2022-12-24T01:37:35.895Z,28.05
2022-12-24T01:37:58.597Z,30.25
2022-12-24T01:38:21.322Z,31.27
2022-12-24T01:38:44.208Z,31.95
2022-12-24T01:39:06.985Z,28.83
2022-12-24T01:39:29.870Z,30.38
2022-12-24T01:40:12.592Z,30.70
2022-12-24T01:40:53.770Z,28.65
2022-12-24T01:41:35.706Z,29.48
2022-12-24T01:42:14.266Z,27.67
2022-12-24T01:42:55.632Z,30.25
2022-12-24T01:43:25.361Z,29.85
2022-12-24T01:43:48.099Z,27.02
2022-12-24T01:44:33.238Z,25.65
2022-12-24T01:45:35.469Z,27.08
2022-12-24T01:45:58.580Z,27.85
2022-12-24T01:46:23.504Z,26.98
2022-12-24T01:46:46.535Z,25.98
2022-12-24T01:47:12.010Z,25.90
2022-12-24T01:47:34.731Z,26.63
2022-12-24T01:47:57.538Z,26.70
2022-12-24T01:48:23.694Z,26.98
2022-12-24T01:48:47.341Z,27.63
2022-12-24T01:49:12.075Z,24.92
2022-12-24T01:49:35.027Z,26.92
2022-12-24T01:49:59.066Z,23.98
2022-12-24T01:50:21.925Z,25.65
2022-12-24T01:50:44.700Z,26.67
2022-12-24T01:51:11.522Z,24.92
2022-12-24T01:51:38.422Z,24.42
2022-12-24T01:52:03.302Z,26.85
2022-12-24T01:52:28.708Z,26.67
2022-12-24T01:52:51.467Z,26.30
2022-12-24T01:53:15.010Z,26.20
2022-12-24T01:53:37.966Z,25.33
2022-12-24T01:54:06.262Z,25.05
2022-12-24T01:54:30.411Z,26.80
2022-12-24T01:54:54.170Z,24.58
2022-12-24T01:55:17.960Z,25.60
2022-12-24T01:55:40.900Z,25.92
2022-12-24T01:56:03.939Z,25.38
2022-12-24T01:56:27.047Z,24.50
2022-12-24T01:56:52.157Z,24.00
2022-12-24T01:57:18.521Z,25.40
2022-12-24T01:57:43.517Z,24.70
2022-12-24T01:58:06.311Z,25.90
2022-12-24T01:58:29.131Z,25.45
2022-12-24T01:58:56.641Z,24.40
2022-12-24T01:59:19.525Z,24.63
2022-12-24T01:59:42.415Z,24.65
2022-12-24T02:00:07.851Z,26.95
2022-12-24T02:00:30.668Z,24.73
2022-12-24T02:00:53.385Z,27.30
2022-12-24T02:01:16.213Z,24.98
2022-12-24T02:01:39.431Z,26.65
2022-12-24T02:02:02.533Z,24.95
2022-12-24T02:02:25.705Z,26.33
2022-12-24T02:02:50.065Z,24.05
2022-12-24T02:03:13.223Z,25.73
2022-12-24T02:03:36.180Z,24.13
2022-12-24T02:03:59.325Z,21.27
2022-12-24T02:04:29.189Z,19.90
2022-12-24T02:04:55.185Z,20.83
2022-12-24T02:05:20.811Z,21.77
2022-12-24T02:05:47.625Z,23.63
2022-12-24T02:06:12.063Z,22.73
2022-12-24T02:06:34.844Z,22.38
2022-12-24T02:06:57.562Z,23.02
2022-12-24T02:07:20.259Z,26.02
2022-12-24T02:07:43.140Z,26.23
2022-12-24T02:08:05.976Z,26.13
2022-12-24T02:08:40.295Z,22.90
2022-12-24T02:09:03.218Z,24.48
2022-12-24T02:09:26.017Z,22.10
2022-12-24T02:09:49.955Z,21.80
2022-12-24T02:10:13.379Z,24.10
2022-12-24T02:10:36.096Z,23.08
2022-12-24T02:10:58.811Z,23.50
2022-12-24T02:11:21.927Z,23.52
2022-12-24T02:11:45.096Z,22.45
2022-12-24T02:12:08.043Z,21.63
2022-12-24T02:12:32.157Z,21.75
2022-12-24T02:12:55.026Z,23.35
2022-12-24T02:13:23.292Z,22.13
2022-12-24T02:13:51.366Z,22.90
2022-12-24T02:14:14.162Z,21.02
2022-12-24T02:14:36.960Z,20.08
2022-12-24T02:14:59.787Z,20.02
2022-12-24T02:15:22.745Z,21.00
2022-12-24T02:15:54.345Z,17.60
2022-12-24T02:16:23.629Z,20.38
2022-12-24T02:16:51.531Z,21.02
2022-12-24T02:17:18.606Z,19.85
2022-12-24T02:17:45.452Z,22.48
2022-12-24T02:18:11.133Z,21.42
2022-12-24T02:18:36.244Z,22.17
2022-12-24T02:19:02.886Z,24.63
2022-12-24T02:19:47.920Z,24.35
2022-12-24T02:20:47.088Z,18.20
2022-12-24T02:21:46.745Z,19.23
2022-12-24T02:22:11.169Z,20.15
2022-12-24T02:22:40.802Z,20.15
2022-12-24T02:23:28.019Z,18.58
2022-12-24T02:24:23.889Z,18.38
2022-12-24T02:25:03.333Z,16.85
2022-12-24T02:25:46.255Z,20.17
2022-12-24T02:26:18.509Z,23.80
2022-12-24T02:27:11.060Z,22.73
2022-12-24T02:27:46.572Z,21.90
2022-12-24T02:28:14.309Z,18.65
2022-12-24T02:28:47.496Z,17.77
2022-12-24T02:29:20.414Z,20.60
2022-12-24T02:30:04.585Z,18.88
2022-12-24T02:30:30.640Z,16.35
2022-12-24T02:30:53.671Z,18.65
2022-12-24T02:31:17.258Z,17.48
2022-12-24T02:31:43.297Z,16.45
2022-12-24T02:32:08.329Z,17.25
2022-12-24T02:32:35.997Z,16.88
2022-12-24T02:33:22.588Z,18.02
2022-12-24T02:33:47.359Z,21.13
2022-12-24T02:34:13.781Z,20.10
2022-12-24T02:34:38.146Z,22.45
2022-12-24T02:35:03.032Z,24.20
2022-12-24T02:35:31.501Z,23.63
2022-12-24T02:35:56.375Z,22.30
2022-12-24T02:36:21.236Z,24.20
2022-12-24T02:36:45.236Z,23.58
2022-12-24T02:37:09.454Z,25.48
2022-12-24T02:37:33.763Z,27.67
2022-12-24T02:37:58.814Z,26.60
2022-12-24T02:38:25.459Z,25.13
2022-12-24T02:38:49.701Z,26.77
2022-12-24T02:39:13.584Z,29.48
2022-12-24T02:39:39.589Z,25.67
2022-12-24T02:40:12.142Z,27.40
2022-12-24T02:40:40.883Z,26.58
2022-12-24T02:41:05.579Z,28.25
2022-12-24T02:41:50.404Z,28.15
2022-12-24T02:42:13.763Z,28.17
2022-12-24T02:42:38.380Z,30.00
2022-12-24T02:43:03.254Z,27.67
2022-12-24T02:43:28.738Z,26.95
2022-12-24T02:43:51.933Z,28.30
2022-12-24T02:44:16.960Z,27.83
2022-12-24T02:44:42.867Z,27.60
2022-12-24T02:45:08.834Z,26.55
2022-12-24T02:45:32.370Z,29.63
2022-12-24T02:45:59.371Z,28.80
2022-12-24T02:46:24.101Z,27.80
2022-12-24T02:46:46.989Z,28.42
2022-12-24T02:47:10.161Z,26.33
2022-12-24T02:47:34.203Z,27.27
2022-12-24T02:47:57.270Z,28.88
2022-12-24T02:48:20.110Z,26.30
2022-12-24T02:48:43.543Z,28.60
2022-12-24T02:49:06.314Z,29.15
2022-12-24T02:49:29.135Z,29.15
2022-12-24T02:49:51.884Z,29.00
2022-12-24T02:50:16.367Z,30.95
2022-12-24T02:50:39.267Z,31.58
2022-12-24T02:51:04.351Z,31.17
2022-12-24T02:51:27.136Z,31.55
2022-12-24T02:51:49.930Z,33.67
2022-12-24T02:52:35.178Z,33.53
2022-12-24T02:52:57.904Z,29.80
2022-12-24T02:53:20.692Z,29.90
2022-12-24T02:53:43.536Z,29.13
2022-12-24T02:54:06.379Z,28.55
2022-12-24T02:54:29.168Z,30.23
2022-12-24T02:54:52.002Z,28.73
2022-12-24T02:55:18.123Z,31.30
2022-12-24T02:55:49.778Z,29.48
2022-12-24T02:56:33.320Z,30.30
2022-12-24T02:57:04.954Z,30.00
2022-12-24T02:57:31.958Z,32.67
2022-12-24T02:58:04.728Z,33.10
2022-12-24T02:58:32.791Z,31.77
2022-12-24T02:59:12.079Z,30.70
2022-12-24T02:59:52.859Z,32.30
2022-12-24T03:00:18.599Z,30.67
2022-12-24T03:00:47.771Z,30.70
2022-12-24T03:01:17.701Z,30.88
2022-12-24T03:01:46.334Z,29.05
2022-12-24T03:02:13.363Z,29.63
2022-12-24T03:02:47.844Z,29.33
2022-12-24T03:03:21.156Z,28.95
2022-12-24T03:04:00.978Z,32.40
2022-12-24T03:04:40.010Z,28.58
2022-12-24T03:05:09.454Z,28.02
2022-12-24T03:05:38.893Z,28.30
2022-12-24T03:06:07.224Z,29.65
2022-12-24T03:06:36.552Z,30.25
2022-12-24T03:07:01.195Z,30.90
2022-12-24T03:07:28.505Z,31.13
2022-12-24T03:07:56.870Z,28.40
2022-12-24T03:08:24.120Z,29.70
2022-12-24T03:08:50.889Z,29.15
2022-12-24T03:09:19.872Z,27.75
2022-12-24T03:09:53.042Z,27.83
2022-12-24T03:10:19.203Z,26.27
2022-12-24T03:10:45.423Z,26.95
2022-12-24T03:11:09.531Z,27.42
2022-12-24T03:11:32.346Z,26.85
2022-12-24T03:11:57.801Z,28.63
2022-12-24T03:12:21.920Z,27.25
2022-12-24T03:12:45.444Z,28.13
2022-12-24T03:13:10.713Z,27.30
2022-12-24T03:13:33.513Z,29.48
2022-12-24T03:13:56.321Z,27.25
2022-12-24T03:14:19.138Z,28.55
2022-12-24T03:14:42.867Z,28.20
2022-12-24T03:15:06.993Z,26.13
2022-12-24T03:15:31.192Z,26.80
2022-12-24T03:15:54.198Z,26.00
2022-12-24T03:16:18.071Z,28.35
2022-12-24T03:16:40.917Z,27.98
2022-12-24T03:17:03.690Z,28.45
2022-12-24T03:17:26.497Z,29.10
2022-12-24T03:17:52.799Z,28.55
2022-12-24T03:18:17.545Z,28.00
2022-12-24T03:18:41.614Z,27.40
2022-12-24T03:19:04.488Z,29.77
2022-12-24T03:19:27.422Z,27.02
2022-12-24T03:19:50.317Z,27.73
2022-12-24T03:20:13.374Z,28.80
2022-12-24T03:20:37.453Z,29.00
2022-12-24T03:21:02.185Z,30.08
2022-12-24T03:21:26.560Z,27.23
2022-12-24T03:21:49.383Z,30.80
2022-12-24T03:22:12.117Z,32.28
2022-12-24T03:22:34.865Z,31.25
2022-12-24T03:22:57.891Z,29.20
2022-12-24T03:23:20.643Z,28.50
2022-12-24T03:23:43.359Z,29.23
2022-12-24T03:24:06.533Z,29.20
2022-12-24T03:24:29.367Z,28.67
2022-12-24T03:24:52.149Z,29.17
2022-12-24T03:25:15.079Z,31.90
2022-12-24T03:25:39.984Z,29.65
2022-12-24T03:26:05.129Z,29.88
2022-12-24T03:26:28.873Z,29.27
2022-12-24T03:26:54.261Z,30.80
2022-12-24T03:27:17.009Z,32.55
2022-12-24T03:27:39.899Z,30.63
2022-12-24T03:28:03.897Z,30.05
2022-12-24T03:28:27.188Z,27.98
2022-12-24T03:28:50.113Z,28.35
2022-12-24T03:29:12.917Z,30.70
2022-12-24T03:29:35.815Z,29.85
2022-12-24T03:29:58.684Z,30.95
2022-12-24T03:30:21.426Z,28.48
2022-12-24T03:30:47.097Z,28.42
2022-12-24T03:31:09.975Z,29.08
2022-12-24T03:31:41.661Z,29.80
2022-12-24T03:32:06.930Z,28.25
2022-12-24T03:32:30.404Z,30.00
2022-12-24T03:32:53.228Z,31.05
2022-12-24T03:33:16.257Z,30.45
2022-12-24T03:33:39.435Z,30.40
2022-12-24T03:34:02.159Z,31.65
2022-12-24T03:34:24.947Z,31.45
2022-12-24T03:34:47.653Z,30.05
2022-12-24T03:35:10.593Z,28.48
2022-12-24T03:35:33.337Z,28.73
2022-12-24T03:35:56.096Z,28.98
2022-12-24T03:36:18.827Z,30.92
2022-12-24T03:36:41.608Z,31.27
2022-12-24T03:37:04.476Z,30.48
2022-12-24T03:37:27.363Z,30.17
2022-12-24T03:37:50.222Z,30.02
2022-12-24T03:38:14.025Z,29.60
2022-12-24T03:38:36.866Z,30.92
2022-12-24T03:38:59.679Z,29.55
2022-12-24T03:39:22.433Z,30.33
2022-12-24T03:39:47.588Z,30.90
2022-12-24T03:40:11.144Z,31.35
2022-12-24T03:40:34.005Z,32.97
2022-12-24T03:41:00.044Z,30.77
2022-12-24T03:41:22.784Z,31.13
2022-12-24T03:41:45.524Z,30.85
2022-12-24T03:42:08.293Z,32.92
2022-12-24T03:42:30.985Z,32.92
2022-12-24T03:42:53.774Z,31.65
2022-12-24T03:43:16.492Z,30.58
2022-12-24T03:43:39.331Z,31.10
2022-12-24T03:44:02.120Z,31.52
2022-12-24T03:44:24.873Z,29.05
2022-12-24T03:44:47.584Z,28.50
2022-12-24T03:45:11.489Z,30.63
2022-12-24T03:45:34.604Z,28.92
2022-12-24T03:45:59.127Z,28.17
2022-12-24T03:46:22.068Z,26.98
2022-12-24T03:46:44.961Z,28.33
2022-12-24T03:47:07.687Z,25.42
2022-12-24T03:47:30.995Z,26.10
2022-12-24T03:47:53.830Z,26.90
2022-12-24T03:48:16.611Z,26.75
2022-12-24T03:48:39.428Z,29.92
2022-12-24T03:49:02.296Z,30.23
2022-12-24T03:49:25.014Z,28.30
2022-12-24T03:49:47.678Z,30.25
2022-12-24T03:50:10.739Z,27.48
2022-12-24T03:50:33.551Z,27.95
2022-12-24T03:50:56.269Z,27.63
2022-12-24T03:51:19.871Z,26.45
2022-12-24T03:51:42.690Z,27.85
2022-12-24T03:52:05.699Z,28.00
2022-12-24T03:52:28.835Z,28.58
2022-12-24T03:52:51.585Z,28.27
2022-12-24T03:53:14.394Z,26.95
2022-12-24T03:53:40.025Z,27.08
2022-12-24T03:54:02.795Z,26.73
2022-12-24T03:54:25.641Z,26.67
2022-12-24T03:54:48.359Z,25.10
2022-12-24T03:55:11.230Z,28.00
2022-12-24T03:55:34.093Z,23.40
2022-12-24T03:55:56.914Z,25.05
2022-12-24T03:56:22.136Z,26.30
2022-12-24T03:56:44.990Z,28.13
2022-12-24T03:57:07.807Z,27.38
2022-12-24T03:57:30.704Z,26.52
2022-12-24T03:57:53.411Z,27.00
2022-12-24T03:58:16.235Z,25.85
2022-12-24T03:58:39.010Z,24.42
2022-12-24T03:59:01.782Z,25.27
2022-12-24T03:59:24.659Z,23.60
2022-12-24T03:59:47.456Z,25.30
2022-12-24T04:00:12.201Z,27.27
2022-12-24T04:00:35.029Z,26.17
2022-12-24T04:00:59.234Z,24.63
2022-12-24T04:01:22.277Z,25.10
2022-12-24T04:01:45.328Z,26.63
2022-12-24T04:02:08.361Z,26.58
2022-12-24T04:02:32.693Z,25.88
2022-12-24T04:02:55.563Z,25.33
2022-12-24T04:03:18.511Z,24.17
2022-12-24T04:03:41.304Z,26.88
2022-12-24T04:04:04.116Z,25.30
2022-12-24T04:04:27.952Z,25.48
2022-12-24T04:04:50.759Z,25.55
2022-12-24T04:05:14.490Z,26.92
2022-12-24T04:05:37.355Z,25.40
2022-12-24T04:06:03.749Z,24.38
2022-12-24T04:06:26.584Z,23.05
2022-12-24T04:06:49.384Z,23.77
2022-12-24T04:07:12.170Z,25.58
2022-12-24T04:07:34.960Z,25.38
2022-12-24T04:07:57.691Z,24.63
2022-12-24T04:08:20.410Z,24.48
2022-12-24T04:08:43.116Z,24.25
2022-12-24T04:09:06.089Z,24.90
2022-12-24T04:09:28.871Z,26.15
2022-12-24T04:09:51.759Z,25.35
2022-12-24T04:10:14.637Z,24.35
2022-12-24T04:10:37.634Z,23.23
2022-12-24T04:11:06.170Z,21.55
2022-12-24T04:11:32.460Z,23.80
2022-12-24T04:11:55.383Z,22.85
2022-12-24T04:12:18.105Z,23.45
2022-12-24T04:12:40.926Z,25.25
2022-12-24T04:13:03.677Z,23.02
2022-12-24T04:13:26.501Z,22.25
2022-12-24T04:13:49.307Z,22.60
2022-12-24T04:14:12.013Z,24.00
2022-12-24T04:14:34.849Z,22.00
2022-12-24T04:14:57.557Z,23.95
2022-12-24T04:15:20.447Z,22.15
2022-12-24T04:15:43.285Z,25.67
2022-12-24T04:16:08.994Z,24.98
2022-12-24T04:16:32.025Z,22.45
2022-12-24T04:16:55.013Z,26.17
2022-12-24T04:17:20.904Z,25.10
2022-12-24T04:17:43.579Z,23.13
2022-12-24T04:18:06.445Z,22.38
2022-12-24T04:18:29.339Z,23.40
2022-12-24T04:18:55.209Z,24.80
2022-12-24T04:19:17.935Z,25.42
2022-12-24T04:19:40.672Z,23.48
2022-12-24T04:20:03.611Z,23.88
2022-12-24T04:20:26.326Z,25.35
2022-12-24T04:20:50.131Z,24.85
2022-12-24T04:21:12.909Z,23.95
2022-12-24T04:21:35.683Z,23.55
2022-12-24T04:21:58.493Z,23.92
2022-12-24T04:22:21.392Z,23.90
2022-12-24T04:22:44.488Z,25.30
2022-12-24T04:23:07.222Z,23.30
2022-12-24T04:23:31.811Z,22.48
2022-12-24T04:23:54.530Z,24.77
2022-12-24T04:24:17.255Z,24.35
2022-12-24T04:24:39.993Z,27.45
2022-12-24T04:25:02.729Z,26.90
2022-12-24T04:25:25.523Z,24.63
2022-12-24T04:25:48.351Z,24.63
2022-12-24T04:26:12.191Z,24.88
2022-12-24T04:26:35.047Z,24.02
2022-12-24T04:26:57.854Z,24.15
2022-12-24T04:27:25.300Z,23.00
2022-12-24T04:27:53.019Z,25.85
2022-12-24T04:28:15.848Z,24.02
2022-12-24T04:28:38.610Z,21.52
2022-12-24T04:29:01.458Z,24.48
2022-12-24T04:29:24.389Z,23.45
2022-12-24T04:29:47.056Z,23.30
2022-12-24T04:30:10.852Z,23.02
2022-12-24T04:30:33.735Z,23.08
2022-12-24T04:30:59.420Z,24.50
2022-12-24T04:31:23.722Z,26.38
2022-12-24T04:31:46.587Z,25.88
2022-12-24T04:32:10.874Z,23.92
2022-12-24T04:32:33.769Z,25.98
2022-12-24T04:32:56.529Z,24.33
2022-12-24T04:33:19.299Z,26.25
2022-12-24T04:33:41.968Z,26.30
2022-12-24T04:34:04.714Z,24.42
2022-12-24T04:34:27.648Z,23.98
2022-12-24T04:34:50.415Z,25.23
2022-12-24T04:35:13.180Z,25.38
2022-12-24T04:35:39.679Z,23.63
2022-12-24T04:36:02.641Z,24.17
2022-12-24T04:36:25.371Z,22.80
2022-12-24T04:36:48.274Z,23.25
2022-12-24T04:37:11.174Z,24.55
2022-12-24T04:37:34.167Z,24.92
2022-12-24T04:37:57.005Z,26.30
2022-12-24T04:38:19.699Z,25.27
2022-12-24T04:38:42.448Z,24.98
2022-12-24T04:39:06.301Z,23.85
2022-12-24T04:39:29.091Z,24.90
2022-12-24T04:39:51.847Z,23.42
2022-12-24T04:40:14.833Z,22.75
2022-12-24T04:40:37.681Z,23.67
2022-12-24T04:41:01.613Z,25.13
2022-12-24T04:41:25.190Z,24.13
2022-12-24T04:41:48.150Z,23.55
2022-12-24T04:42:11.091Z,24.90
2022-12-24T04:42:34.994Z,24.27
2022-12-24T04:42:57.751Z,21.65
2022-12-24T04:43:20.605Z,20.85
2022-12-24T04:43:43.349Z,20.13
2022-12-24T04:44:06.223Z,22.38
2022-12-24T04:44:28.998Z,24.35
2022-12-24T04:44:51.832Z,24.48
2022-12-24T04:45:14.559Z,23.35
2022-12-24T04:45:37.530Z,24.75
2022-12-24T04:46:05.384Z,25.60
2022-12-24T04:46:33.149Z,22.58
2022-12-24T04:46:55.963Z,26.27
2022-12-24T04:47:18.831Z,25.33
2022-12-24T04:47:41.690Z,24.60
2022-12-24T04:48:07.281Z,24.15
2022-12-24T04:48:30.039Z,23.60
2022-12-24T04:48:53.506Z,25.48
2022-12-24T04:49:16.338Z,24.73
2022-12-24T04:49:39.123Z,25.10
2022-12-24T04:50:01.836Z,25.30
2022-12-24T04:50:24.819Z,25.27
2022-12-24T04:50:47.596Z,24.60
2022-12-24T04:51:10.745Z,24.33
2022-12-24T04:51:33.643Z,24.92
2022-12-24T04:51:56.470Z,25.73
2022-12-24T04:52:21.929Z,25.23
2022-12-24T04:52:44.663Z,25.45
2022-12-24T04:53:07.456Z,23.45
2022-12-24T04:53:32.668Z,23.70
2022-12-24T04:53:55.778Z,23.85
2022-12-24T04:54:18.550Z,24.38
2022-12-24T04:54:41.299Z,23.88
2022-12-24T04:55:04.390Z,23.63
2022-12-24T04:55:27.208Z,25.00
2022-12-24T04:55:49.933Z,23.85
2022-12-24T04:56:13.433Z,22.83
2022-12-24T04:56:37.187Z,22.70
2022-12-24T04:57:00.011Z,22.30
2022-12-24T04:57:22.830Z,21.73
2022-12-24T04:57:51.140Z,22.20
2022-12-24T04:58:15.787Z,21.48
2022-12-24T04:58:38.627Z,22.92
2022-12-24T04:59:01.641Z,22.85
2022-12-24T04:59:24.346Z,20.85
2022-12-24T04:59:47.065Z,21.67
2022-12-24T05:00:11.511Z,21.77
2022-12-24T05:00:34.297Z,21.48
2022-12-24T05:00:57.148Z,21.13
2022-12-24T05:01:21.309Z,22.75
2022-12-24T05:01:45.888Z,24.05
2022-12-24T05:02:10.177Z,21.38
2022-12-24T05:02:33.416Z,23.42
2022-12-24T05:02:56.630Z,23.67
2022-12-24T05:03:19.588Z,23.00
2022-12-24T05:03:42.318Z,24.50
2022-12-24T05:04:07.302Z,22.77
2022-12-24T05:04:30.099Z,22.48
2022-12-24T05:04:52.947Z,22.67
2022-12-24T05:05:15.877Z,22.42
2022-12-24T05:05:38.604Z,22.75
2022-12-24T05:06:04.283Z,22.13
2022-12-24T05:06:29.175Z,21.35
2022-12-24T05:06:52.005Z,21.88
2022-12-24T05:07:14.739Z,21.10
2022-12-24T05:07:37.704Z,20.48
2022-12-24T05:08:00.536Z,20.23
2022-12-24T05:08:23.445Z,22.23
2022-12-24T05:08:46.599Z,21.58
2022-12-24T05:09:09.580Z,20.70
2022-12-24T05:09:32.797Z,23.50
2022-12-24T05:09:55.797Z,23.92
2022-12-24T05:10:19.435Z,23.98
2022-12-24T05:10:42.210Z,24.15
2022-12-24T05:11:06.224Z,25.80
2022-12-24T05:11:29.033Z,23.00
2022-12-24T05:11:51.860Z,21.25
2022-12-24T05:12:14.615Z,20.90
2022-12-24T05:12:37.371Z,22.95
2022-12-24T05:13:00.120Z,23.85
2022-12-24T05:13:23.126Z,24.23
2022-12-24T05:13:48.427Z,24.92
2022-12-24T05:14:11.484Z,22.92
2022-12-24T05:14:34.354Z,22.70
2022-12-24T05:14:57.185Z,24.45
2022-12-24T05:15:19.951Z,22.42
2022-12-24T05:15:44.810Z,24.05
2022-12-24T05:16:07.702Z,25.58